< < Back
Terminal Aerodrome Forecast


Current Version              Previous Versions:   1  2  3  4  5  6  7  8  9  

Terminal Aerodrome Forecast

665
FTUS42 KJAX 231700
TAFSSI
TAF
KSSI 231729Z 2318/2418 VRB06KT P6SM FEW060
     FM231900 15006KT P6SM FEW060
     FM240100 VRB03KT P6SM SCT250
     FM241400 10010KT P6SM SCT045 SCT250=



Latest METAR

440
SAUS70 KWBC 240700 RRE
MTRSSI
METAR KSSI 240653Z AUTO 00000KT 8SM CLR 18/17 A2992 RMK AO2 SLP132
T01830172 PWINO $


USA.gov is the U.S. government's official web portal to all federal, state and local government web resources and services.